createdAt,value
2022-08-03T05:00:16.918Z,100306.40
2022-08-03T05:02:45.837Z,100301.00
2022-08-03T05:05:16.657Z,100296.00
2022-08-03T05:07:45.756Z,100294.40
2022-08-03T05:10:17.220Z,100290.00
2022-08-03T05:12:49.181Z,100290.20
2022-08-03T05:15:18.186Z,100288.60
2022-08-03T05:17:48.277Z,100288.60
2022-08-03T05:20:22.337Z,100290.20
2022-08-03T05:23:03.218Z,100288.00
2022-08-03T05:25:39.322Z,100287.60
2022-08-03T05:28:16.620Z,100288.60
2022-08-03T05:30:56.209Z,100289.60
2022-08-03T05:33:32.498Z,100293.00
2022-08-03T05:36:06.076Z,100290.60
2022-08-03T05:38:35.597Z,100296.60
2022-08-03T05:41:21.125Z,100298.00
2022-08-03T05:43:55.845Z,100304.00
2022-08-03T05:46:25.358Z,100304.40
2022-08-03T05:48:54.322Z,100309.40
2022-08-03T05:51:23.446Z,100313.20
2022-08-03T05:53:52.857Z,100314.40
2022-08-03T05:56:28.499Z,100317.40
2022-08-03T05:58:57.279Z,100317.80
2022-08-03T06:01:26.309Z,100322.60
2022-08-03T06:03:55.380Z,100323.40
2022-08-03T06:06:24.258Z,100324.60
2022-08-03T06:08:53.361Z,100326.40
2022-08-03T06:11:22.259Z,100320.60
2022-08-03T06:13:51.141Z,100331.00
2022-08-03T06:16:20.038Z,100324.40
2022-08-03T06:18:49.242Z,100326.00
2022-08-03T06:21:18.019Z,100325.40
2022-08-03T06:23:53.873Z,100323.20
2022-08-03T06:26:27.332Z,100322.80
2022-08-03T06:28:56.660Z,100325.00
2022-08-03T06:31:33.239Z,100322.20
2022-08-03T06:34:33.190Z,100323.20
2022-08-03T06:37:01.510Z,100326.60
2022-08-03T06:39:31.259Z,100327.60
2022-08-03T06:42:00.060Z,100323.00
2022-08-03T06:44:29.140Z,100321.00
2022-08-03T06:47:01.618Z,100324.20
2022-08-03T06:49:30.532Z,100324.80
2022-08-03T06:52:04.631Z,100325.00
2022-08-03T06:54:37.482Z,100328.80
2022-08-03T06:57:08.556Z,100329.40
2022-08-03T07:00:10.872Z,100331.80
2022-08-03T07:02:30.396Z,100324.40
2022-08-03T07:05:00.107Z,100330.00
2022-08-03T07:07:29.030Z,100327.80
2022-08-03T07:09:58.382Z,100319.60
2022-08-03T07:12:29.323Z,100317.80
2022-08-03T07:15:02.258Z,100321.40
2022-08-03T07:17:34.997Z,100316.00
2022-08-03T07:20:08.159Z,100319.40
2022-08-03T07:22:37.521Z,100317.00
2022-08-03T07:25:07.302Z,100318.40
2022-08-03T07:27:36.519Z,100324.00
2022-08-03T07:30:14.057Z,100320.00
2022-08-03T07:32:50.691Z,100322.40
2022-08-03T07:35:25.211Z,100321.20
2022-08-03T07:37:57.581Z,100320.40
2022-08-03T07:40:28.196Z,100318.80
2022-08-03T07:43:03.089Z,100317.40
2022-08-03T07:45:33.268Z,100319.80
2022-08-03T07:48:02.978Z,100321.80
2022-08-03T07:50:32.363Z,100322.80
2022-08-03T07:53:01.740Z,100318.40
2022-08-03T07:55:31.828Z,100321.40
2022-08-03T07:58:18.167Z,100316.80
2022-08-03T08:00:53.471Z,100322.60
2022-08-03T08:03:24.777Z,100326.20
2022-08-03T08:05:57.814Z,100325.40
2022-08-03T08:08:27.216Z,100315.80
2022-08-03T08:10:58.545Z,100317.80
2022-08-03T08:13:27.916Z,100322.20
2022-08-03T08:15:57.236Z,100325.60
2022-08-03T08:18:26.831Z,100323.40
2022-08-03T08:20:56.776Z,100320.00
2022-08-03T08:23:41.716Z,100316.40
2022-08-03T08:26:12.699Z,100317.80
2022-08-03T08:28:42.376Z,100317.40
2022-08-03T08:31:12.136Z,100319.40
2022-08-03T08:36:30.439Z,100317.80
2022-08-03T08:38:59.658Z,100320.60
2022-08-03T08:41:32.284Z,100317.40
2022-08-03T08:44:05.436Z,100321.40
2022-08-03T08:46:34.980Z,100314.80
2022-08-03T08:49:04.959Z,100312.40
2022-08-03T08:51:54.915Z,100323.80
2022-08-03T08:54:28.547Z,100319.00
2022-08-03T08:57:16.399Z,100313.80
2022-08-03T08:59:52.520Z,100315.20
2022-08-03T09:02:31.438Z,100315.40
2022-08-03T09:05:06.899Z,100321.40
2022-08-03T09:07:36.818Z,100319.40
2022-08-03T09:10:12.953Z,100317.20
2022-08-03T09:12:49.660Z,100320.00
2022-08-03T09:15:26.377Z,100318.20
2022-08-03T09:17:58.638Z,100313.00
2022-08-03T09:20:31.675Z,100316.20
2022-08-03T09:23:13.988Z,100317.00
2022-08-03T09:25:59.838Z,100316.40
2022-08-03T09:28:59.388Z,100318.00
2022-08-03T09:31:39.137Z,100315.60
2022-08-03T09:34:16.224Z,100316.60
2022-08-03T09:36:51.039Z,100317.80
2022-08-03T09:39:41.728Z,100311.80
2022-08-03T09:42:25.095Z,100310.60
2022-08-03T09:44:54.599Z,100305.20
2022-08-03T09:47:44.962Z,100299.40
2022-08-03T09:50:14.365Z,100303.40
2022-08-03T09:52:52.455Z,100297.20
2022-08-03T09:56:35.567Z,100299.00
2022-08-03T09:58:15.277Z,100294.80
2022-08-03T10:00:58.948Z,100293.00
2022-08-03T10:03:32.477Z,100295.60
2022-08-03T10:06:20.027Z,100293.00
2022-08-03T10:09:17.123Z,100287.40
2022-08-03T10:11:47.666Z,100289.20
2022-08-03T10:14:20.076Z,100283.40
2022-08-03T10:16:49.988Z,100285.40
2022-08-03T10:19:19.896Z,100287.20
2022-08-03T10:22:09.319Z,100281.20
2022-08-03T10:24:40.741Z,100282.80
2022-08-03T10:27:14.017Z,100278.80
2022-08-03T10:29:49.918Z,100282.60
2022-08-03T10:32:40.279Z,100279.00
2022-08-03T10:35:18.935Z,100283.20
2022-08-03T10:38:03.849Z,100282.80
2022-08-03T10:40:54.531Z,100280.20
2022-08-03T10:43:59.863Z,100282.40
2022-08-03T10:46:29.521Z,100281.40
2022-08-03T10:48:59.715Z,100282.20
2022-08-03T10:51:32.457Z,100278.00
2022-08-03T10:54:01.774Z,100277.20
2022-08-03T10:56:53.502Z,100277.80
2022-08-03T10:59:49.199Z,100277.20
2022-08-03T11:02:18.618Z,100270.20
2022-08-03T11:04:47.398Z,100274.00
2022-08-03T11:07:26.400Z,100274.40
2022-08-03T11:09:57.337Z,100272.20
2022-08-03T11:12:33.563Z,100272.80
2022-08-03T11:15:11.037Z,100269.40
2022-08-03T11:17:55.658Z,100267.20
2022-08-03T11:21:00.384Z,100269.40
2022-08-03T11:24:02.504Z,100260.20
2022-08-03T11:26:35.239Z,100262.40
2022-08-03T11:29:31.122Z,100259.00
2022-08-03T11:32:00.379Z,100262.00
2022-08-03T11:34:30.907Z,100262.80
2022-08-03T11:37:28.831Z,100262.00
2022-08-03T11:40:02.840Z,100265.60
2022-08-03T11:42:36.156Z,100255.60
2022-08-03T11:45:11.286Z,100257.20
2022-08-03T11:47:51.008Z,100258.60
2022-08-03T11:50:24.131Z,100253.20
2022-08-03T11:52:53.615Z,100255.20
2022-08-03T11:55:22.470Z,100247.80
2022-08-03T11:59:17.419Z,100249.20
2022-08-03T12:00:40.626Z,100247.40
2022-08-03T12:03:16.633Z,100251.00
2022-08-03T12:05:55.191Z,100242.60
2022-08-03T12:08:27.902Z,100242.60
2022-08-03T12:11:00.145Z,100242.00
2022-08-03T12:13:56.580Z,100238.40
2022-08-03T12:16:31.587Z,100234.60
2022-08-03T12:19:05.717Z,100233.60
2022-08-03T12:21:35.591Z,100230.40
2022-08-03T12:24:07.339Z,100233.40
2022-08-03T12:26:59.240Z,100226.00
2022-08-03T12:29:30.656Z,100230.60
2022-08-03T12:32:00.094Z,100230.00
2022-08-03T12:35:02.009Z,100223.00
2022-08-03T12:37:33.600Z,100228.60
2022-08-03T12:40:10.428Z,100230.60
2022-08-03T12:42:42.857Z,100232.00
2022-08-03T12:45:28.844Z,100225.60
2022-08-03T12:48:03.417Z,100225.00
2022-08-03T12:50:38.279Z,100226.40
2022-08-03T12:53:10.437Z,100222.60
2022-08-03T12:56:04.565Z,100218.40
2022-08-03T12:58:34.672Z,100211.60
2022-08-03T13:01:14.817Z,100211.60
2022-08-03T13:04:05.420Z,100211.00
2022-08-03T13:06:40.038Z,100211.80
2022-08-03T13:09:10.258Z,100216.20
2022-08-03T13:11:55.735Z,100215.40
2022-08-03T13:14:28.208Z,100212.80
2022-08-03T13:16:57.508Z,100214.40
2022-08-03T13:19:27.019Z,100222.20
2022-08-03T13:22:04.250Z,100214.20
2022-08-03T13:24:34.521Z,100211.20
2022-08-03T13:28:02.232Z,100213.20
2022-08-03T13:29:56.228Z,100210.00
2022-08-03T13:32:25.568Z,100209.20
2022-08-03T13:34:54.890Z,100212.20
2022-08-03T13:37:23.953Z,100210.60
2022-08-03T13:39:59.423Z,100214.80
2022-08-03T13:42:31.458Z,100214.00
2022-08-03T13:45:02.445Z,100215.80
2022-08-03T13:47:31.959Z,100211.60
2022-08-03T13:50:03.029Z,100208.60
2022-08-03T13:52:35.876Z,100205.40
2022-08-03T13:55:07.432Z,100207.00
2022-08-03T13:58:02.299Z,100207.80
2022-08-03T14:00:29.364Z,100201.20
2022-08-03T14:03:17.601Z,100202.20
2022-08-03T14:05:52.419Z,100199.40
2022-08-03T14:08:21.760Z,100202.60
2022-08-03T14:10:50.832Z,100200.00
2022-08-03T14:13:21.696Z,100193.40
2022-08-03T14:15:52.264Z,100191.80
2022-08-03T14:18:29.152Z,100190.00
2022-08-03T14:21:10.538Z,100187.00
2022-08-03T14:23:43.558Z,100183.80
2022-08-03T14:26:15.240Z,100187.00
2022-08-03T14:28:44.099Z,100191.40
2022-08-03T14:32:09.126Z,100180.20
2022-08-03T14:34:03.820Z,100182.60
2022-08-03T14:36:32.982Z,100174.80
2022-08-03T14:39:02.458Z,100177.60
2022-08-03T14:41:31.600Z,100174.80
2022-08-03T14:44:02.390Z,100181.00
2022-08-03T14:46:32.706Z,100176.00
2022-08-03T14:50:29.395Z,100178.80
2022-08-03T14:51:53.757Z,100173.40
2022-08-03T14:54:27.519Z,100171.40
2022-08-03T14:57:05.040Z,100166.80
2022-08-03T14:59:55.826Z,100162.80
2022-08-03T15:02:32.329Z,100162.00
2022-08-03T15:05:04.877Z,100162.80
2022-08-03T15:07:34.538Z,100163.60
2022-08-03T15:10:03.640Z,100161.40
2022-08-03T15:12:32.938Z,100158.40
2022-08-03T15:15:01.818Z,100161.60
2022-08-03T15:17:30.719Z,100157.00
2022-08-03T15:20:24.183Z,100155.20
2022-08-03T15:22:50.820Z,100153.20
2022-08-03T15:26:32.315Z,100148.80
2022-08-03T15:28:15.739Z,100150.00
2022-08-03T15:30:44.850Z,100148.40
2022-08-03T15:33:14.959Z,100147.20
2022-08-03T15:35:47.218Z,100145.40
2022-08-03T15:38:16.843Z,100144.00
2022-08-03T15:40:46.741Z,100146.00
2022-08-03T15:43:16.051Z,100145.20
2022-08-03T15:45:46.799Z,100142.40
2022-08-03T15:48:15.680Z,100140.00
2022-08-03T15:50:44.679Z,100142.00
2022-08-03T15:53:13.367Z,100142.80
2022-08-03T15:55:42.460Z,100145.60
2022-08-03T15:59:03.204Z,100143.80
2022-08-03T16:01:05.833Z,100140.00
2022-08-03T16:03:35.799Z,100142.40
2022-08-03T16:06:07.061Z,100135.40
2022-08-03T16:08:36.101Z,100133.80
2022-08-03T16:11:05.039Z,100133.20
2022-08-03T16:14:11.896Z,100127.40
2022-08-03T16:16:22.838Z,100130.40
2022-08-03T16:18:52.223Z,100124.00
2022-08-03T16:21:21.781Z,100124.20
2022-08-03T16:23:53.197Z,100125.00
2022-08-03T16:26:22.919Z,100124.80
2022-08-03T16:28:57.040Z,100121.20
2022-08-03T16:31:27.600Z,100121.80
2022-08-03T16:33:56.540Z,100117.80
2022-08-03T16:36:27.598Z,100118.40
2022-08-03T16:39:04.120Z,100115.80
2022-08-03T16:41:53.494Z,100120.20
2022-08-03T16:44:22.220Z,100117.60
2022-08-03T16:46:51.642Z,100115.60
2022-08-03T16:49:55.543Z,100116.20
2022-08-03T16:52:10.079Z,100118.40
2022-08-03T16:54:42.579Z,100121.60
2022-08-03T16:57:11.951Z,100120.20
2022-08-03T17:02:29.449Z,100124.40
2022-08-03T17:04:59.038Z,100125.60
2022-08-03T17:07:29.658Z,100126.40
2022-08-03T17:10:06.780Z,100130.80
2022-08-03T17:12:35.839Z,100130.80
2022-08-03T17:15:06.298Z,100138.20
2022-08-03T17:17:55.856Z,100140.20
2022-08-03T17:20:29.847Z,100133.60
2022-08-03T17:23:34.039Z,100135.00
2022-08-03T17:26:12.516Z,100138.60
2022-08-03T17:28:57.270Z,100139.60
2022-08-03T17:31:31.431Z,100141.40
2022-08-03T17:34:04.530Z,100141.80
2022-08-03T17:37:02.620Z,100143.20
2022-08-03T17:39:55.586Z,100144.40
2022-08-03T17:42:30.213Z,100146.60
2022-08-03T17:45:03.983Z,100149.00
2022-08-03T17:47:42.165Z,100147.00
2022-08-03T17:50:25.379Z,100153.00
2022-08-03T17:53:32.622Z,100152.20
2022-08-03T17:56:46.012Z,100152.60
2022-08-03T17:59:51.724Z,100156.20
2022-08-03T18:03:03.225Z,100157.20
2022-08-03T18:08:33.598Z,100151.40
2022-08-03T18:11:15.197Z,100150.60
2022-08-03T18:14:16.018Z,100155.80
2022-08-03T18:16:57.817Z,100157.60
2022-08-03T18:20:00.868Z,100159.40
2022-08-03T18:22:22.204Z,100156.40
2022-08-03T18:24:56.287Z,100158.40
2022-08-03T18:27:45.633Z,100160.20
2022-08-03T18:30:17.888Z,100164.80
2022-08-03T18:33:00.699Z,100168.00
2022-08-03T18:35:52.807Z,100171.20
2022-08-03T18:38:21.618Z,100175.80
2022-08-03T18:40:53.039Z,100177.20
2022-08-03T18:43:46.239Z,100175.40
2022-08-03T18:46:36.699Z,100178.00
2022-08-03T18:49:29.028Z,100182.40
2022-08-03T18:52:12.364Z,100185.60
2022-08-03T18:55:11.141Z,100182.20
2022-08-03T18:58:15.854Z,100186.00
2022-08-03T19:01:05.059Z,100185.80
2022-08-03T19:03:51.886Z,100186.00
2022-08-03T19:06:27.967Z,100182.20
2022-08-03T19:09:09.682Z,100186.40
2022-08-03T19:12:13.241Z,100183.00
2022-08-03T19:14:43.758Z,100182.60
2022-08-03T19:17:14.528Z,100187.60
2022-08-03T19:19:53.018Z,100188.00
2022-08-03T19:22:22.550Z,100189.20
2022-08-03T19:24:53.422Z,100193.00
2022-08-03T19:27:26.889Z,100189.60
2022-08-03T19:30:03.022Z,100188.20
2022-08-03T19:32:35.198Z,100181.60
2022-08-03T19:35:05.626Z,100183.00
2022-08-03T19:37:45.808Z,100184.20
2022-08-03T19:40:14.559Z,100184.80
2022-08-03T19:42:55.763Z,100188.80
2022-08-03T19:46:05.454Z,100186.60
2022-08-03T19:48:33.459Z,100191.20
2022-08-03T19:51:12.178Z,100181.20
2022-08-03T19:53:46.457Z,100187.60
2022-08-03T19:56:19.767Z,100186.00
2022-08-03T19:58:53.403Z,100190.80
2022-08-03T20:01:28.186Z,100192.80
2022-08-03T20:03:57.818Z,100195.20
2022-08-03T20:06:26.719Z,100192.40
2022-08-03T20:08:56.898Z,100189.60
2022-08-03T20:11:32.389Z,100191.20
2022-08-03T20:14:20.567Z,100195.40
2022-08-03T20:16:55.779Z,100194.00
2022-08-03T20:19:25.277Z,100195.80
2022-08-03T20:22:02.218Z,100197.20
2022-08-03T20:24:36.838Z,100200.80
2022-08-03T20:27:11.509Z,100196.20
2022-08-03T20:30:06.985Z,100207.20
2022-08-03T20:32:36.519Z,100204.00
2022-08-03T20:35:09.822Z,100204.60
2022-08-03T20:37:39.447Z,100208.80
2022-08-03T20:40:11.206Z,100207.60
2022-08-03T20:42:40.179Z,100208.60
2022-08-03T20:45:13.901Z,100206.80
2022-08-03T20:48:02.349Z,100202.40
2022-08-03T20:50:31.960Z,100204.40
2022-08-03T20:53:04.916Z,100205.00
2022-08-03T20:55:47.993Z,100197.40
2022-08-03T20:58:27.349Z,100202.40
2022-08-03T21:00:57.959Z,100207.20
2022-08-03T21:03:41.160Z,100207.40
2022-08-03T21:06:27.677Z,100206.80
2022-08-03T21:09:05.893Z,100208.20
2022-08-03T21:11:43.726Z,100204.00
2022-08-03T21:12:56.699Z,100152.00
2022-08-03T21:14:33.653Z,100208.40
2022-08-03T21:17:14.072Z,100206.20
2022-08-03T21:19:51.635Z,100203.80
2022-08-03T21:22:25.437Z,100200.00
2022-08-03T21:24:58.279Z,100197.60
2022-08-03T21:27:33.560Z,100203.40
2022-08-03T21:30:08.220Z,100206.60
2022-08-03T21:32:40.793Z,100208.60
2022-08-03T21:35:11.221Z,100211.60
2022-08-03T21:37:42.724Z,100209.40
2022-08-03T21:40:17.561Z,100210.80
2022-08-03T21:42:47.160Z,100210.80
2022-08-03T21:45:17.680Z,100212.40
2022-08-03T21:47:48.977Z,100208.00
2022-08-03T21:50:18.440Z,100210.20
2022-08-03T21:52:49.677Z,100210.40
2022-08-03T21:55:20.846Z,100204.00
2022-08-03T21:57:54.319Z,100197.00
